Time;durP1;ratioP1;P1;durP2;ratioP2;P2;SDS_P1;SDS_P2;PMS_P1;PMS_P2;Temp;Humidity;BMP_temperature;BMP_pressure;BME280_temperature;BME280_humidity;BME280_pressure;Samples;Min_cycle;Max_cycle;Signal;HPM_P1;HPM_P2
2022/09/23 00:01:14;;;;;;;12.63;8.05;;;11.70;91.50;;;;;;4250394;27;20039;-85
2022/09/23 00:03:15;;;;;;;12.27;8.63;;;11.60;91.50;;;;;;4250057;27;20038;-85
2022/09/23 00:05:16;;;;;;;12.90;8.30;;;11.60;91.60;;;;;;4251034;27;20128;-85
2022/09/23 00:07:17;;;;;;;12.02;9.13;;;11.60;91.70;;;;;;4250683;27;20057;-85
2022/09/23 00:09:19;;;;;;;12.77;9.02;;;11.60;91.70;;;;;;4233699;28;20035;-84
2022/09/23 00:11:26;;;;;;;12.95;8.82;;;11.60;91.80;;;;;;4234741;28;20044;-84
2022/09/23 00:13:26;;;;;;;12.50;9.32;;;11.60;91.80;;;;;;4233785;28;20506;-85
2022/09/23 00:15:30;;;;;;;13.50;8.77;;;11.50;91.90;;;;;;4233810;28;20044;-85
2022/09/23 00:17:31;;;;;;;14.75;9.05;;;11.60;92.00;;;;;;4253342;27;20051;-85
2022/09/23 00:19:31;;;;;;;12.48;8.35;;;11.50;92.10;;;;;;4231065;28;20048;-84
2022/09/23 00:21:32;;;;;;;10.40;8.25;;;11.50;92.10;;;;;;4248678;27;20050;-84
2022/09/23 00:23:33;;;;;;;14.30;8.60;;;11.50;92.10;;;;;;4230482;28;20510;-85
2022/09/23 00:25:34;;;;;;;12.98;8.00;;;11.50;92.20;;;;;;4248771;27;20043;-85
2022/09/23 00:27:37;;;;;;;12.07;8.98;;;11.40;92.30;;;;;;4230302;28;20052;-84
2022/09/23 00:29:38;;;;;;;10.93;8.43;;;11.40;92.30;;;;;;4248709;27;20118;-84
2022/09/23 00:31:38;;;;;;;13.52;8.82;;;11.40;92.40;;;;;;4248754;27;20050;-84
2022/09/23 00:33:39;;;;;;;13.88;8.82;;;11.40;92.50;;;;;;4246749;27;20046;-84
2022/09/23 00:35:40;;;;;;;11.75;8.07;;;11.40;92.50;;;;;;4249509;27;20448;-85
2022/09/23 00:37:41;;;;;;;14.07;9.20;;;11.30;92.60;;;;;;4249617;27;20043;-85
2022/09/23 00:39:44;;;;;;;17.88;9.48;;;11.30;92.70;;;;;;4249252;27;20043;-85
2022/09/23 00:41:45;;;;;;;13.20;9.20;;;11.30;92.70;;;;;;4249560;27;20498;-85
2022/09/23 00:43:53;;;;;;;15.75;9.15;;;11.30;92.70;;;;;;4249654;27;20130;-85
2022/09/23 00:45:54;;;;;;;12.48;9.38;;;11.30;92.70;;;;;;4249822;27;20053;-84
2022/09/23 00:48:00;;;;;;;12.75;8.48;;;11.30;92.80;;;;;;4249401;27;20039;-84
2022/09/23 00:50:00;;;;;;;13.95;9.52;;;11.20;92.80;;;;;;4248799;27;20062;-85
2022/09/23 00:52:09;;;;;;;11.45;8.93;;;11.00;92.90;;;;;;4245182;27;20047;-85
2022/09/23 00:54:10;;;;;;;13.85;9.23;;;11.20;93.00;;;;;;4265671;27;20049;-84
2022/09/23 00:56:13;;;;;;;11.25;8.73;;;11.10;93.00;;;;;;4266453;27;20042;-84
2022/09/23 00:58:17;;;;;;;13.32;9.98;;;11.20;93.00;;;;;;4231473;28;20043;-84
2022/09/23 01:00:18;;;;;;;12.77;8.70;;;11.20;93.10;;;;;;4266802;27;20139;-84
2022/09/23 01:02:22;;;;;;;10.57;8.82;;;11.20;93.20;;;;;;4266018;27;20087;-84
2022/09/23 01:04:25;;;;;;;11.80;8.02;;;11.10;93.20;;;;;;4266486;27;20118;-84
2022/09/23 01:06:28;;;;;;;15.00;9.30;;;11.20;93.20;;;;;;4230539;28;20088;-84
2022/09/23 01:08:30;;;;;;;14.25;9.00;;;11.10;93.30;;;;;;4230634;28;20074;-84
2022/09/23 01:10:42;;;;;;;12.07;9.05;;;11.10;93.30;;;;;;4231658;28;20062;-85
2022/09/23 01:12:55;;;;;;;11.95;8.55;;;11.10;93.30;;;;;;4231438;28;20080;-84
2022/09/23 01:15:17;;;;;;;14.25;8.75;;;11.10;93.30;;;;;;4247696;27;20051;-84
2022/09/23 01:17:43;;;;;;;12.68;8.35;;;11.10;93.30;;;;;;4233666;27;20053;-85
2022/09/23 01:20:07;;;;;;;11.38;8.68;;;11.10;93.60;;;;;;4230158;28;20104;-85
2022/09/23 01:22:21;;;;;;;13.35;8.27;;;11.10;93.50;;;;;;4248881;27;20043;-85
2022/09/23 01:24:46;;;;;;;13.77;8.88;;;10.60;93.40;;;;;;4230444;28;20051;-85
2022/09/23 01:27:02;;;;;;;11.85;9.15;;;10.60;93.60;;;;;;4248619;27;20046;-85
2022/09/23 01:29:27;;;;;;;14.77;9.48;;;11.10;93.50;;;;;;4248735;27;20392;-85
2022/09/23 01:31:58;;;;;;;13.15;8.73;;;11.00;93.70;;;;;;4248529;27;20043;-85
2022/09/23 01:34:23;;;;;;;13.25;8.77;;;11.10;94.00;;;;;;4225199;28;20098;-85
2022/09/23 01:36:44;;;;;;;14.43;9.32;;;11.00;93.70;;;;;;4213262;28;20046;-85
2022/09/23 01:39:13;;;;;;;15.98;9.35;;;11.00;93.70;;;;;;4230781;28;20052;-85
2022/09/23 01:41:25;;;;;;;13.90;9.00;;;11.00;93.70;;;;;;4248543;27;20081;-85
2022/09/23 01:43:49;;;;;;;14.43;8.60;;;11.00;93.70;;;;;;4248357;28;20047;-84
2022/09/23 01:45:55;;;;;;;11.30;9.15;;;10.90;94.00;;;;;;4230084;28;20144;-84
2022/09/23 01:48:00;;;;;;;12.95;9.65;;;10.90;93.80;;;;;;4230579;28;20052;-84
2022/09/23 01:52:41;;;;;;;14.98;10.07;;;10.90;94.00;;;;;;4248617;28;20055;-84
2022/09/23 01:54:52;;;;;;;13.75;9.40;;;10.90;94.00;;;;;;4229956;28;20059;-84
2022/09/23 01:57:11;;;;;;;14.38;8.88;;;10.80;94.10;;;;;;4248768;28;20578;-84
2022/09/23 01:59:20;;;;;;;13.30;9.52;;;11.00;94.30;;;;;;4230379;28;20492;-84
2022/09/23 02:01:39;;;;;;;13.55;9.23;;;10.80;94.20;;;;;;4248513;28;20049;-84
2022/09/23 02:03:46;;;;;;;14.23;8.82;;;10.80;94.10;;;;;;4213144;28;20544;-84
2022/09/23 02:05:55;;;;;;;23.17;9.68;;;10.80;94.20;;;;;;4213702;28;20412;-84
2022/09/23 02:07:59;;;;;;;16.13;9.30;;;10.70;94.10;;;;;;4248598;28;20059;-84
2022/09/23 02:10:26;;;;;;;12.60;8.82;;;10.80;94.20;;;;;;4248691;28;20054;-84
2022/09/23 02:12:31;;;;;;;14.68;8.98;;;10.80;94.40;;;;;;4230521;28;20055;-84
2022/09/23 02:14:44;;;;;;;11.43;9.00;;;10.80;94.10;;;;;;4213779;28;20067;-84
2022/09/23 02:16:49;;;;;;;15.38;8.45;;;10.80;94.20;;;;;;4230307;28;20088;-84
2022/09/23 02:19:16;;;;;;;15.10;8.43;;;10.70;94.20;;;;;;4229688;28;20039;-84
2022/09/23 02:21:20;;;;;;;11.65;8.93;;;10.80;94.20;;;;;;4235323;28;20047;-84
2022/09/23 02:23:34;;;;;;;12.70;8.38;;;10.70;94.20;;;;;;4214000;28;20056;-84
2022/09/23 02:26:06;;;;;;;11.93;7.90;;;10.70;94.30;;;;;;4230927;28;20044;-84
2022/09/23 02:28:42;;;;;;;13.82;8.55;;;10.70;94.40;;;;;;4230338;28;20036;-84
2022/09/23 02:30:50;;;;;;;13.45;8.95;;;10.70;94.30;;;;;;4248346;28;20196;-84
2022/09/23 02:32:59;;;;;;;14.70;8.35;;;10.70;94.30;;;;;;4251115;27;20047;-84
2022/09/23 02:35:07;;;;;;;11.02;8.52;;;10.60;94.20;;;;;;4233537;28;20507;-84
2022/09/23 02:37:24;;;;;;;11.57;7.68;;;10.60;94.20;;;;;;4250653;27;20112;-84
2022/09/23 02:39:35;;;;;;;12.27;8.25;;;10.50;94.30;;;;;;4251016;27;20114;-83
2022/09/23 02:41:59;;;;;;;14.63;8.25;;;10.60;94.30;;;;;;4250068;27;20050;-83
2022/09/23 02:44:10;;;;;;;13.02;7.50;;;10.50;94.20;;;;;;4236597;27;20548;-83
2022/09/23 02:46:11;;;;;;;12.98;9.13;;;10.50;94.40;;;;;;4250608;27;20043;-83
2022/09/23 02:48:21;;;;;;;10.10;7.85;;;10.50;94.40;;;;;;4250598;27;20049;-83
2022/09/23 02:50:23;;;;;;;12.13;9.10;;;10.50;94.40;;;;;;4249687;27;20061;-83
2022/09/23 02:52:23;;;;;;;18.63;9.68;;;10.40;94.30;;;;;;4220983;28;20048;-83
2022/09/23 02:54:27;;;;;;;10.38;7.82;;;10.40;94.40;;;;;;4249574;27;20053;-84
2022/09/23 02:56:27;;;;;;;13.05;7.85;;;10.40;94.50;;;;;;4250374;27;20518;-83
2022/09/23 02:58:29;;;;;;;11.63;7.95;;;10.40;94.90;;;;;;4250382;27;20035;-83
2022/09/23 03:01:01;;;;;;;10.95;8.13;;;10.30;94.70;;;;;;4250290;27;20042;-83
2022/09/23 03:03:26;;;;;;;13.00;8.35;;;10.30;94.90;;;;;;4214517;28;20056;-83
2022/09/23 03:05:30;;;;;;;12.27;8.30;;;10.30;94.90;;;;;;4250328;27;20046;-83
2022/09/23 03:08:17;;;;;;;13.70;9.13;;;10.30;94.90;;;;;;4250238;27;20043;-83
2022/09/23 03:10:45;;;;;;;11.85;9.25;;;10.20;95.20;;;;;;4171349;27;20087;-83
2022/09/23 03:13:12;;;;;;;13.25;8.15;;;10.20;94.90;;;;;;4213205;28;20476;-83
2022/09/23 03:15:34;;;;;;;12.50;8.25;;;10.20;95.00;;;;;;4250888;27;20043;-83
2022/09/23 03:17:45;;;;;;;10.60;7.38;;;10.20;95.10;;;;;;4250768;27;20515;-84
2022/09/23 03:19:56;;;;;;;11.48;7.70;;;10.20;95.00;;;;;;4215732;28;20048;-84
2022/09/23 03:22:11;;;;;;;11.35;8.63;;;10.20;95.30;;;;;;4250975;27;20491;-83
2022/09/23 03:24:14;;;;;;;14.00;8.35;;;10.20;95.00;;;;;;4232572;28;20064;-85
2022/09/23 03:26:30;;;;;;;14.32;8.32;;;10.10;95.00;;;;;;4250408;27;20082;-84
2022/09/23 03:28:36;;;;;;;12.35;8.68;;;10.10;95.20;;;;;;4255161;27;20482;-84
2022/09/23 03:30:37;;;;;;;12.63;8.57;;;10.10;95.10;;;;;;4268037;27;20039;-83
2022/09/23 03:32:43;;;;;;;12.73;8.25;;;10.10;95.20;;;;;;4267957;27;20047;-84
2022/09/23 03:34:47;;;;;;;18.60;9.60;;;10.10;95.50;;;;;;4249614;27;20047;-83
2022/09/23 03:37:00;;;;;;;14.10;8.52;;;10.00;95.30;;;;;;4267482;27;20106;-83
2022/09/23 03:39:09;;;;;;;11.23;8.52;;;10.00;95.70;;;;;;4267739;27;20439;-84
2022/09/23 03:41:18;;;;;;;13.63;9.00;;;10.00;95.50;;;;;;4267589;27;20420;-84
2022/09/23 03:43:19;;;;;;;13.55;9.30;;;9.80;95.60;;;;;;4267556;27;20047;-84
2022/09/23 03:45:24;;;;;;;19.63;9.45;;;9.80;95.60;;;;;;4267434;27;20497;-83
2022/09/23 03:47:27;;;;;;;16.25;9.30;;;9.90;95.70;;;;;;4267774;27;20044;-83
2022/09/23 03:49:34;;;;;;;13.43;9.55;;;9.90;95.90;;;;;;4249065;27;20082;-84
2022/09/23 03:51:39;;;;;;;16.15;10.52;;;9.90;95.80;;;;;;4250754;27;20079;-84
2022/09/23 03:53:40;;;;;;;16.63;10.10;;;9.80;95.90;;;;;;4249052;27;20165;-84
2022/09/23 03:55:42;;;;;;;13.70;9.00;;;9.80;95.90;;;;;;4250696;27;20088;-84
2022/09/23 03:57:44;;;;;;;12.88;9.40;;;9.80;96.00;;;;;;4250787;27;20104;-85
2022/09/23 03:59:44;;;;;;;14.65;9.52;;;9.80;96.00;;;;;;4250807;27;20050;-84
2022/09/23 04:01:45;;;;;;;14.23;9.30;;;9.80;95.90;;;;;;4249238;27;20047;-84
2022/09/23 04:03:45;;;;;;;11.25;8.38;;;9.80;95.90;;;;;;4249145;27;20510;-84
2022/09/23 04:05:47;;;;;;;15.50;9.50;;;9.80;96.10;;;;;;4227533;27;20040;-84
2022/09/23 04:07:49;;;;;;;14.00;9.18;;;9.70;96.10;;;;;;4215219;28;20388;-84
2022/09/23 04:09:51;;;;;;;14.70;10.38;;;9.70;96.20;;;;;;4216218;28;20048;-84
2022/09/23 04:11:53;;;;;;;16.00;9.75;;;9.70;96.20;;;;;;4215998;28;20490;-84
2022/09/23 04:13:56;;;;;;;13.57;8.98;;;9.70;96.30;;;;;;4214094;28;20097;-84
2022/09/23 04:15:57;;;;;;;14.23;9.25;;;9.60;96.40;;;;;;4197063;28;20123;-84
2022/09/23 04:17:58;;;;;;;15.68;9.63;;;9.60;96.40;;;;;;4214691;28;20119;-84
2022/09/23 04:19:58;;;;;;;14.05;9.10;;;9.70;96.50;;;;;;4224848;28;20067;-84
2022/09/23 04:21:59;;;;;;;12.27;8.88;;;9.70;96.50;;;;;;4232768;28;20046;-85
2022/09/23 04:24:00;;;;;;;12.90;9.10;;;9.60;96.50;;;;;;4232783;28;20132;-85
2022/09/23 04:26:01;;;;;;;12.18;9.32;;;9.60;96.60;;;;;;4231522;28;20071;-84
2022/09/23 04:28:01;;;;;;;14.32;8.88;;;9.60;96.60;;;;;;4232295;28;20137;-84
2022/09/23 04:30:04;;;;;;;14.57;9.55;;;9.60;96.70;;;;;;4219288;28;20047;-84
2022/09/23 04:32:04;;;;;;;13.98;9.25;;;9.60;96.90;;;;;;4230800;28;20047;-84
2022/09/23 04:34:05;;;;;;;15.18;8.80;;;9.60;96.70;;;;;;4232758;28;20453;-84
2022/09/23 04:36:06;;;;;;;11.93;8.50;;;9.60;96.70;;;;;;4232445;28;20047;-84
2022/09/23 04:38:11;;;;;;;15.32;8.75;;;9.50;96.80;;;;;;4231240;28;20054;-84
2022/09/23 04:40:12;;;;;;;13.18;8.82;;;9.50;96.90;;;;;;4230863;28;20580;-84
2022/09/23 04:42:13;;;;;;;11.57;8.80;;;9.60;96.80;;;;;;4230671;28;20059;-84
2022/09/23 04:44:14;;;;;;;10.90;8.27;;;9.50;96.70;;;;;;4232197;28;20050;-84
2022/09/23 04:46:15;;;;;;;14.90;9.00;;;9.50;96.60;;;;;;4232197;28;20529;-84
2022/09/23 04:48:16;;;;;;;13.57;8.10;;;9.50;96.80;;;;;;4215740;28;20130;-84
2022/09/23 04:50:17;;;;;;;10.45;7.90;;;9.50;96.80;;;;;;4224106;28;20055;-84
2022/09/23 04:52:18;;;;;;;14.25;8.88;;;9.50;96.80;;;;;;4232573;28;20126;-84
2022/09/23 04:54:19;;;;;;;14.52;8.48;;;9.50;96.80;;;;;;4197241;28;20044;-85
2022/09/23 04:56:22;;;;;;;11.93;8.00;;;9.50;96.80;;;;;;4213447;28;20048;-84
2022/09/23 04:58:24;;;;;;;13.38;8.88;;;9.50;96.80;;;;;;4213941;28;20106;-84
2022/09/23 05:00:27;;;;;;;16.25;8.32;;;9.50;96.80;;;;;;4232014;28;20112;-84
2022/09/23 05:02:28;;;;;;;12.25;7.85;;;9.50;96.90;;;;;;4232021;28;20514;-84
2022/09/23 05:04:30;;;;;;;14.95;8.63;;;9.50;96.90;;;;;;4232137;28;20065;-84
2022/09/23 05:06:35;;;;;;;12.45;8.07;;;9.50;96.90;;;;;;4232287;28;20073;-84
2022/09/23 05:08:35;;;;;;;11.02;7.97;;;9.50;96.80;;;;;;4231903;28;20502;-84
2022/09/23 05:10:36;;;;;;;13.35;8.15;;;9.50;96.80;;;;;;4231902;28;20075;-84
2022/09/23 05:12:38;;;;;;;16.90;9.60;;;9.50;96.80;;;;;;4213791;28;20427;-83
2022/09/23 05:14:39;;;;;;;13.90;8.75;;;9.50;96.80;;;;;;4213556;28;20044;-84
2022/09/23 05:16:39;;;;;;;14.50;8.95;;;9.50;96.80;;;;;;4213674;28;20075;-84
2022/09/23 05:18:41;;;;;;;12.07;8.50;;;9.50;96.90;;;;;;4213592;28;20507;-84
2022/09/23 05:20:43;;;;;;;13.07;8.55;;;9.50;96.90;;;;;;4213697;28;20048;-83
2022/09/23 05:22:44;;;;;;;14.05;8.70;;;9.50;96.90;;;;;;4231618;28;20115;-84
2022/09/23 05:24:46;;;;;;;12.90;8.35;;;9.40;96.90;;;;;;4226818;28;20048;-83
2022/09/23 05:26:47;;;;;;;12.25;8.48;;;9.50;97.00;;;;;;4230459;28;20071;-83
2022/09/23 05:28:48;;;;;;;14.05;8.43;;;9.50;96.90;;;;;;4248384;27;20046;-84
2022/09/23 05:30:48;;;;;;;11.57;9.00;;;9.50;96.90;;;;;;4213517;28;20040;-84
2022/09/23 05:32:50;;;;;;;16.50;8.85;;;9.50;97.00;;;;;;4248934;27;20035;-84
2022/09/23 05:34:53;;;;;;;13.30;9.07;;;9.50;97.20;;;;;;4248062;27;20076;-83
2022/09/23 05:36:54;;;;;;;13.43;9.30;;;9.40;97.00;;;;;;4230158;28;20464;-83
2022/09/23 05:38:55;;;;;;;14.00;9.13;;;9.40;96.90;;;;;;4248680;27;20050;-84
2022/09/23 05:40:57;;;;;;;15.55;10.00;;;9.40;96.90;;;;;;4248628;27;20408;-84
2022/09/23 05:42:57;;;;;;;13.10;8.77;;;9.40;96.90;;;;;;4250783;27;20058;-83
2022/09/23 05:44:58;;;;;;;14.60;8.80;;;9.40;96.90;;;;;;4248704;27;20118;-83
2022/09/23 05:46:59;;;;;;;22.08;10.43;;;9.50;97.10;;;;;;4230444;28;20039;-83
2022/09/23 05:49:01;;;;;;;16.52;10.05;;;9.40;97.00;;;;;;4248917;27;20506;-84
2022/09/23 05:51:03;;;;;;;16.45;9.18;;;9.50;97.00;;;;;;4229133;28;20127;-84
2022/09/23 05:53:05;;;;;;;15.15;9.15;;;9.50;96.90;;;;;;4248657;27;20074;-84
2022/09/23 05:55:06;;;;;;;15.00;9.55;;;9.50;96.90;;;;;;4248594;27;20043;-84
2022/09/23 05:57:08;;;;;;;14.60;9.55;;;9.50;96.80;;;;;;4248515;28;20403;-83
2022/09/23 05:59:10;;;;;;;15.38;9.02;;;9.50;96.90;;;;;;4248351;28;20078;-83
2022/09/23 06:01:13;;;;;;;13.68;9.35;;;9.60;97.00;;;;;;4248008;28;20035;-85
2022/09/23 06:03:19;;;;;;;12.52;9.40;;;9.60;96.90;;;;;;4248711;28;20611;-85
2022/09/23 06:05:20;;;;;;;15.27;9.10;;;9.60;96.80;;;;;;4230624;28;20114;-85
2022/09/23 06:07:20;;;;;;;13.20;9.23;;;9.60;96.80;;;;;;4223010;28;20055;-84
2022/09/23 06:09:22;;;;;;;16.48;9.55;;;9.70;96.80;;;;;;4234282;28;20502;-85
2022/09/23 06:11:23;;;;;;;15.65;8.88;;;9.70;96.80;;;;;;4235305;28;20035;-85
2022/09/23 06:13:25;;;;;;;14.82;10.20;;;9.70;96.90;;;;;;4251527;27;20050;-84
2022/09/23 06:15:26;;;;;;;19.33;10.23;;;9.70;96.90;;;;;;4213734;28;20473;-84
2022/09/23 06:17:27;;;;;;;18.17;9.48;;;9.70;96.90;;;;;;4232803;28;20047;-84
2022/09/23 06:19:28;;;;;;;14.98;10.40;;;9.80;96.90;;;;;;4235721;28;20479;-84
2022/09/23 06:21:32;;;;;;;22.70;9.20;;;9.80;96.90;;;;;;4235866;28;20535;-85
2022/09/23 06:23:33;;;;;;;26.92;10.82;;;9.80;96.80;;;;;;4238652;27;20056;-84
2022/09/23 06:25:34;;;;;;;14.93;9.57;;;9.90;96.90;;;;;;4251196;27;20047;-84
2022/09/23 06:27:35;;;;;;;16.20;9.52;;;9.90;96.80;;;;;;4251673;27;20088;-84
2022/09/23 06:29:36;;;;;;;15.57;9.55;;;9.90;96.80;;;;;;4250448;27;20035;-84
2022/09/23 06:31:39;;;;;;;14.15;9.15;;;9.90;96.90;;;;;;4232090;28;20486;-84
2022/09/23 06:33:42;;;;;;;14.20;9.20;;;10.00;96.80;;;;;;4251972;27;20055;-84
2022/09/23 06:35:42;;;;;;;15.05;9.18;;;10.00;96.70;;;;;;4251167;27;20039;-84
2022/09/23 06:37:45;;;;;;;14.75;9.40;;;10.10;96.90;;;;;;4251439;27;20043;-85
2022/09/23 06:39:45;;;;;;;19.40;9.95;;;10.10;96.80;;;;;;4252303;27;20395;-84
2022/09/23 06:41:46;;;;;;;15.75;9.23;;;10.10;97.10;;;;;;4251558;27;20047;-84
2022/09/23 06:43:48;;;;;;;14.15;9.23;;;10.20;96.80;;;;;;4214049;28;20036;-85
2022/09/23 06:45:56;;;;;;;19.90;9.45;;;10.20;96.80;;;;;;4243746;27;20035;-84
2022/09/23 06:47:57;;;;;;;15.82;9.13;;;10.30;96.70;;;;;;4235140;27;20090;-84
2022/09/23 06:49:58;;;;;;;19.10;9.23;;;10.30;96.70;;;;;;4233403;28;20043;-84
2022/09/23 06:51:59;;;;;;;17.40;9.73;;;10.40;96.50;;;;;;4233227;28;20420;-84
2022/09/23 06:54:00;;;;;;;13.45;8.65;;;10.50;96.50;;;;;;4233474;28;20373;-85
2022/09/23 06:56:02;;;;;;;16.13;8.80;;;10.50;96.50;;;;;;4215161;28;20086;-84
2022/09/23 06:58:03;;;;;;;15.30;9.15;;;10.60;96.40;;;;;;4233632;28;20043;-85
2022/09/23 07:00:04;;;;;;;14.05;9.20;;;10.70;96.40;;;;;;4232869;28;20086;-85
2022/09/23 07:02:05;;;;;;;16.45;8.73;;;10.80;96.20;;;;;;4233329;28;20078;-85
2022/09/23 07:04:07;;;;;;;15.02;8.13;;;10.80;96.20;;;;;;4216192;28;20115;-85
2022/09/23 07:06:08;;;;;;;15.75;9.10;;;10.90;96.10;;;;;;4232913;28;20093;-85
2022/09/23 07:08:09;;;;;;;12.90;8.55;;;11.00;96.20;;;;;;4233070;28;20040;-84
2022/09/23 07:10:10;;;;;;;13.90;9.38;;;11.00;96.10;;;;;;4236553;27;20077;-85
2022/09/23 07:12:11;;;;;;;17.63;9.15;;;11.00;96.00;;;;;;4232256;28;20035;-83
2022/09/23 07:14:12;;;;;;;15.60;8.32;;;11.10;96.00;;;;;;4232478;27;20174;-83
2022/09/23 07:16:13;;;;;;;13.13;9.02;;;11.10;95.90;;;;;;4228380;28;20495;-85
2022/09/23 07:18:14;;;;;;;16.25;8.07;;;11.10;95.80;;;;;;4231571;28;20113;-86
2022/09/23 07:20:16;;;;;;;13.10;8.60;;;11.20;95.90;;;;;;4250872;27;20035;-85
2022/09/23 07:22:17;;;;;;;15.02;9.18;;;11.10;95.70;;;;;;4232008;28;20044;-86
2022/09/23 07:24:18;;;;;;;15.55;9.18;;;11.20;95.80;;;;;;4214936;28;20055;-86
2022/09/23 07:26:19;;;;;;;20.35;8.95;;;11.20;95.80;;;;;;4234977;27;20048;-86
2022/09/23 07:28:20;;;;;;;20.33;9.18;;;11.20;95.80;;;;;;4232913;28;20035;-86
2022/09/23 07:30:21;;;;;;;18.38;8.65;;;11.30;95.80;;;;;;4236849;27;20058;-83
2022/09/23 07:32:22;;;;;;;18.70;9.05;;;11.30;95.80;;;;;;4251093;27;20054;-82
2022/09/23 07:34:23;;;;;;;16.30;8.98;;;11.30;95.80;;;;;;4233138;28;20067;-86
2022/09/23 07:36:26;;;;;;;15.40;8.35;;;11.30;95.70;;;;;;4250572;27;20035;-83
2022/09/23 07:38:28;;;;;;;17.77;8.38;;;11.40;95.70;;;;;;4244887;27;20088;-83
2022/09/23 07:40:29;;;;;;;16.30;9.35;;;11.40;95.60;;;;;;4251153;27;20050;-84
2022/09/23 07:42:30;;;;;;;16.58;9.02;;;11.50;95.60;;;;;;4251291;27;20429;-84
2022/09/23 07:44:32;;;;;;;15.30;8.48;;;11.50;95.60;;;;;;4232581;28;20054;-84
2022/09/23 07:46:34;;;;;;;16.38;8.50;;;11.60;95.60;;;;;;4249622;27;20039;-84
2022/09/23 07:48:36;;;;;;;12.65;8.38;;;11.60;95.50;;;;;;4249789;27;20071;-83
2022/09/23 07:50:38;;;;;;;12.85;8.55;;;11.80;95.40;;;;;;4249905;27;20047;-83
2022/09/23 07:52:39;;;;;;;14.40;9.43;;;11.90;95.30;;;;;;4251071;27;20398;-83
2022/09/23 07:54:40;;;;;;;14.27;8.38;;;12.00;95.30;;;;;;4232580;28;20043;-83
2022/09/23 07:56:41;;;;;;;14.98;9.05;;;12.20;95.20;;;;;;4231917;28;20124;-83
2022/09/23 07:58:44;;;;;;;15.13;8.40;;;12.40;94.70;;;;;;4249469;27;20050;-83
2022/09/23 08:00:44;;;;;;;12.85;8.27;;;12.60;94.80;;;;;;4250566;27;20043;-83
2022/09/23 08:02:45;;;;;;;13.05;9.18;;;12.70;94.40;;;;;;4231904;28;20500;-83
2022/09/23 08:04:48;;;;;;;13.73;9.27;;;12.70;94.50;;;;;;4250497;27;20477;-83
2022/09/23 08:06:51;;;;;;;18.35;9.13;;;12.60;94.50;;;;;;4251422;27;20112;-84
2022/09/23 08:08:51;;;;;;;12.13;8.48;;;12.60;94.50;;;;;;4249905;27;20043;-84
2022/09/23 08:11:00;;;;;;;13.82;9.05;;;12.60;94.60;;;;;;4232697;28;20104;-85
2022/09/23 08:13:02;;;;;;;14.32;8.05;;;12.60;94.70;;;;;;4250586;27;20513;-85
2022/09/23 08:15:04;;;;;;;13.20;8.43;;;12.60;94.70;;;;;;4249367;27;20046;-84
2022/09/23 08:17:05;;;;;;;13.30;8.45;;;12.60;94.60;;;;;;4249742;27;20126;-85
2022/09/23 08:19:07;;;;;;;12.15;7.68;;;12.70;94.60;;;;;;4249607;27;20043;-85
2022/09/23 08:21:08;;;;;;;12.18;8.45;;;12.70;94.40;;;;;;4249873;27;20043;-84
2022/09/23 08:23:09;;;;;;;10.88;7.15;;;12.80;94.40;;;;;;4231254;28;20054;-85
2022/09/23 08:25:10;;;;;;;15.50;8.70;;;12.90;94.20;;;;;;4230820;28;20478;-85
2022/09/23 08:27:11;;;;;;;14.80;8.27;;;12.90;94.10;;;;;;4250069;27;20062;-85
2022/09/23 08:29:17;;;;;;;13.20;7.90;;;13.00;94.10;;;;;;4249422;27;20107;-85
2022/09/23 08:31:20;;;;;;;10.85;7.70;;;13.00;94.00;;;;;;4249252;27;20043;-85
2022/09/23 08:33:22;;;;;;;15.93;8.80;;;13.00;94.00;;;;;;4249249;27;20086;-85
2022/09/23 08:35:22;;;;;;;15.25;8.48;;;13.00;93.90;;;;;;4230890;28;20055;-85
2022/09/23 08:37:23;;;;;;;12.57;7.38;;;13.10;93.90;;;;;;4248810;27;20043;-85
2022/09/23 08:39:24;;;;;;;11.15;7.93;;;13.10;93.90;;;;;;4248983;27;20487;-84
2022/09/23 08:41:43;;;;;;;12.65;7.68;;;13.20;93.80;;;;;;4230848;28;20483;-84
2022/09/23 08:43:46;;;;;;;;;;;13.20;93.80;;;;;;4249587;27;20039;-85
2022/09/23 08:45:49;;;;;;;15.45;6.60;;;12.50;93.50;;;;;;4248866;27;19926;-85
2022/09/23 08:48:12;;;;;;;14.57;7.38;;;13.40;93.60;;;;;;4213782;28;20519;-85
2022/09/23 08:50:27;;;;;;;14.68;8.20;;;13.70;93.40;;;;;;4249028;27;20058;-84
2022/09/23 08:52:34;;;;;;;11.20;6.90;;;14.00;92.90;;;;;;4249172;27;20051;-84
2022/09/23 08:54:36;;;;;;;12.98;7.28;;;14.50;92.60;;;;;;4248662;27;20114;-84
2022/09/23 08:56:38;;;;;;;12.50;7.63;;;14.60;92.20;;;;;;4248490;27;20487;-85
2022/09/23 08:58:45;;;;;;;12.52;8.20;;;14.60;92.10;;;;;;4231267;28;20091;-84
2022/09/23 09:01:13;;;;;;;12.60;7.45;;;14.60;92.10;;;;;;4249196;27;20039;-83
2022/09/23 09:03:23;;;;;;;18.95;7.80;;;14.50;92.10;;;;;;4249047;27;20043;-82
2022/09/23 09:05:26;;;;;;;16.85;7.20;;;14.40;92.10;;;;;;4249196;27;20372;-82
2022/09/23 09:07:37;;;;;;;17.95;8.20;;;14.40;92.20;;;;;;4249005;27;20043;-82
2022/09/23 09:10:13;;;;;;;10.48;7.10;;;14.30;92.20;;;;;;4228079;28;20044;-83
2022/09/23 09:12:28;;;;;;;11.55;7.35;;;14.30;92.30;;;;;;4222953;28;20083;-83
2022/09/23 09:14:41;;;;;;;12.15;7.28;;;14.20;92.30;;;;;;4214260;28;20052;-84
2022/09/23 09:17:03;;;;;;;12.98;7.13;;;14.30;92.20;;;;;;4214264;28;20130;-83
2022/09/23 09:19:07;;;;;;;13.43;6.72;;;14.20;92.20;;;;;;4247777;27;20053;-83
2022/09/23 09:21:12;;;;;;;12.57;7.05;;;14.30;92.20;;;;;;4249649;27;20042;-84
2022/09/23 09:23:22;;;;;;;16.58;7.10;;;14.30;92.20;;;;;;4249411;27;20100;-84
2022/09/23 09:25:29;;;;;;;10.48;6.47;;;14.30;92.10;;;;;;4248536;27;20394;-82
2022/09/23 09:27:40;;;;;;;11.73;7.32;;;14.40;92.00;;;;;;4230093;28;20039;-84
2022/09/23 09:29:45;;;;;;;12.35;6.57;;;14.40;91.90;;;;;;4249190;27;20074;-83
2022/09/23 09:31:49;;;;;;;12.85;6.57;;;14.40;91.90;;;;;;4250287;27;20043;-83
2022/09/23 09:34:10;;;;;;;10.85;6.97;;;14.50;91.80;;;;;;4230287;28;20047;-84
2022/09/23 09:36:45;;;;;;;9.10;6.05;;;14.60;91.80;;;;;;4230187;28;20052;-83
2022/09/23 09:38:46;;;;;;;9.98;5.93;;;14.70;91.70;;;;;;4248778;27;20049;-83
2022/09/23 09:40:47;;;;;;;9.77;5.70;;;14.70;91.60;;;;;;4231309;28;20122;-83
2022/09/23 09:42:49;;;;;;;14.98;6.53;;;14.70;91.50;;;;;;4232037;28;20039;-83
2022/09/23 09:45:00;;;;;;;12.48;6.32;;;14.80;91.40;;;;;;4249594;27;20433;-82
2022/09/23 09:47:13;;;;;;;9.63;5.90;;;14.80;91.30;;;;;;4214759;28;20070;-83
2022/09/23 09:49:44;;;;;;;13.90;6.20;;;14.90;91.20;;;;;;4249080;27;20124;-83
2022/09/23 09:51:46;;;;;;;9.52;5.70;;;14.90;91.10;;;;;;4249173;27;20051;-84
2022/09/23 09:53:50;;;;;;;10.23;5.53;;;14.90;91.10;;;;;;4231280;28;20055;-82
2022/09/23 09:56:05;;;;;;;12.43;5.57;;;14.90;91.00;;;;;;4230881;28;20054;-83
2022/09/23 09:58:12;;;;;;;9.73;6.18;;;15.00;90.80;;;;;;4249144;28;20088;-83
2022/09/23 10:00:25;;;;;;;12.52;5.95;;;15.00;91.10;;;;;;4230214;28;20036;-83
2022/09/23 10:02:34;;;;;;;13.23;5.28;;;15.10;90.70;;;;;;4230159;28;20095;-82
2022/09/23 10:04:35;;;;;;;13.52;6.10;;;15.10;90.70;;;;;;4230358;28;20143;-82
2022/09/23 10:06:36;;;;;;;13.40;6.90;;;15.10;90.70;;;;;;4230224;28;20046;-85
2022/09/23 10:08:37;;;;;;;9.63;6.15;;;15.10;90.70;;;;;;4248145;28;20092;-85
2022/09/23 10:10:39;;;;;;;11.75;6.55;;;15.10;90.70;;;;;;4219557;28;20040;-85
2022/09/23 10:12:46;;;;;;;11.05;6.13;;;15.10;90.70;;;;;;4230961;28;20115;-85
2022/09/23 10:14:50;;;;;;;11.38;6.25;;;15.10;90.60;;;;;;4196548;28;20048;-85
2022/09/23 10:17:04;;;;;;;10.35;5.93;;;15.10;90.70;;;;;;4197296;28;20040;-84
2022/09/23 10:19:13;;;;;;;11.65;6.10;;;15.20;90.60;;;;;;4232930;28;20048;-83
2022/09/23 10:21:19;;;;;;;9.10;5.45;;;15.20;90.50;;;;;;4244516;28;20035;-83
2022/09/23 10:23:27;;;;;;;9.30;5.90;;;15.20;90.70;;;;;;4248729;28;20157;-84
2022/09/23 10:25:27;;;;;;;7.90;5.85;;;15.30;90.50;;;;;;4248596;28;20059;-84
2022/09/23 10:27:34;;;;;;;13.75;7.30;;;15.30;90.40;;;;;;4248695;28;20074;-85
2022/09/23 10:29:49;;;;;;;14.00;6.22;;;15.30;90.30;;;;;;4248615;28;20091;-85
2022/09/23 10:32:25;;;;;;;10.75;5.80;;;15.30;90.30;;;;;;4248108;28;20047;-85
2022/09/23 10:34:26;;;;;;;9.68;5.82;;;15.40;90.20;;;;;;4249088;28;20506;-85
2022/09/23 10:36:31;;;;;;;11.25;5.88;;;15.40;90.30;;;;;;4248273;28;20047;-85
2022/09/23 10:38:32;;;;;;;8.82;5.25;;;15.40;90.30;;;;;;4248443;28;20043;-85
2022/09/23 10:48:17;;;;;;;8.77;5.32;;;15.50;90.20;;;;;;4248734;28;20051;-85
2022/09/23 10:50:47;;;;;;;7.63;5.05;;;15.60;90.10;;;;;;4247430;28;20149;-85
2022/09/23 10:53:11;;;;;;;9.43;5.28;;;15.60;90.00;;;;;;4248438;27;20055;-87
2022/09/23 10:55:30;;;;;;;10.90;5.97;;;15.70;89.60;;;;;;4250583;27;20039;-84
2022/09/23 10:57:56;;;;;;;9.20;5.35;;;15.80;89.40;;;;;;4232122;28;20043;-84
2022/09/23 11:00:09;;;;;;;11.27;5.38;;;15.70;89.30;;;;;;4248778;27;20054;-85
2022/09/23 11:02:28;;;;;;;11.27;6.05;;;15.80;89.30;;;;;;4233327;28;20202;-84